Northport NY Webcam more information Northport NY Webcam


Visit our other weather sites:

Template documentation
and downloads

And another site



Nearby METAR Reports


Warning: A non-numeric value encountered in /home/portan24/public_html/weather28/metar/wsMetarTxt.php on line 608

Warning: A non-numeric value encountered in /home/portan24/public_html/weather28/metar/wsMetarTxt.php on line 608
   
EBBR - Brussels International Airport, Belgium
Distance from station: W 9 mi
Updated: Dec 18 2018 12:50 pm
Clear  
Clear  
   Wind: SSE 12.7 mph
Wind: SSE 12.7 mph
Temperature: 44.6°F
Wind Chill: 37.4°F
Dew Point: 33.8°F
Humidity: 66%
Barometer: 29.88 inHg
Visibility: More than 6 mi
Cloud details: Clear m
EBBR 181750Z 15011KT CAVOK 07/01 Q1012 NOSIG
EBBE - Beauvechain (Bevekom), Belgium
Distance from station: SSE 10 mi
Updated: Dec 18 2018 12:55 pm
Mostly Cloudy  
Mostly Cloudy  
   Wind: SE 9.2 mph
Wind: SE 9.2 mph
Temperature: 41°F
Wind Chill: 35.6°F
Dew Point: 32°F
Humidity: 70%
Barometer: 29.91 inHg
Clouds: Mostly Cloudy
Visibility: More than 6 mi
Cloud details: Mostly Cloudy 5182 m,
Mostly Cloudy 6706 m
EBBE 181755Z 13008KT 9999 BKN170 BKN220 05/00 Q1013 BLU BLU
EBDT - Schaffen, Belgium
Distance from station: ENE 18 mi
Updated: Dec 18 2018 12:55 pm
Overcast  
Overcast  
   Wind: SE 8.1 mph
Wind: SE 8.1 mph
Temperature: 41°F
Wind Chill: 35.6°F
Dew Point: 33.8°F
Humidity: 76%
Barometer: 29.94 inHg
Clouds: Overcast
Visibility: More than 6 mi
Cloud details: Overcast 4877 m
EBDT 181755Z AUTO 14007KT 9999 OVC160/// 05/01 Q1014 BLU
EBAW - Antwerp/Deurne, Belgium
Distance from station: NNW 23 mi
Updated: Dec 18 2018 12:50 pm
Clear  
Clear  
   Wind: SE 12.7 mph
Wind: SE 12.7 mph
Temperature: 42.8°F
Wind Chill: 35.6°F
Dew Point: 35.6°F
Humidity: 76%
Barometer: 29.91 inHg
Visibility: More than 6 mi
Cloud details: Clear m
EBAW 181750Z 14011KT CAVOK 06/02 Q1013 NOSIG
EBCI - Charleroi/Gosselies, Belgium
Distance from station: SSW 32 mi
Updated: Dec 18 2018 12:50 pm
Clear  
Clear  
   Wind: SSE 11.5 mph
Wind: SSE 11.5 mph
Temperature: 42.8°F
Wind Chill: 37.4°F
Dew Point: 33.8°F
Humidity: 71%
Barometer: 29.91 inHg
Visibility: More than 6 mi
Cloud details: Clear m
EBCI 181750Z 15010KT CAVOK 06/01 Q1013 NOSIG
EBLG - Bierset/Liege, Belgium
Distance from station: ESE 38 mi
Updated: Dec 18 2018 12:50 pm
Clear  
Clear  
   Wind: SE 11.5 mph<br />Gust to 11.5 mph
Wind: SE 11.5 mph
Gust to 11.5 mph
Temperature: 42.8°F
Wind Chill: 37.4°F
Dew Point: 33.8°F
Humidity: 71%
Barometer: 29.91 inHg
Visibility: More than 6 mi
Cloud details: Clear m
EBLG 181750Z 14010G20KT 120V190 CAVOK 06/01 Q1013 NOSIG

Script developed by  Saratoga-weather.org Adapted for the template by  Weerstation Leuven

You find our weather info also at:

Weather Underground

AWEKAS

Citizen Weather Observer Program (CWOP)

Equipment we use:

Weather-station
Davis VP2

Davis VP2